Time;durP1;ratioP1;P1;durP2;ratioP2;P2;SDS_P1;SDS_P2;PMS_P1;PMS_P2;Temp;Humidity;BMP_temperature;BMP_pressure;BME280_temperature;BME280_humidity;BME280_pressure;Samples;Min_cycle;Max_cycle;Signal;HPM_P1;HPM_P2
2022/09/22 00:01:03;;;;;;;1.93;1.80;;;8.90;99.90;8.30;101114;;;;604943;234;24097;-76
2022/09/22 00:03:34;;;;;;;2.47;1.60;;;8.90;99.90;8.30;101114;;;;604202;234;24003;-75
2022/09/22 00:06:05;;;;;;;2.53;1.67;;;8.90;99.90;8.40;101111;;;;604079;234;24027;-75
2022/09/22 00:08:33;;;;;;;2.00;1.67;;;8.90;99.90;8.30;101117;;;;604321;234;24061;-75
2022/09/22 00:11:01;;;;;;;1.40;1.30;;;8.90;99.90;8.30;101119;;;;603878;234;24006;-75
2022/09/22 00:13:30;;;;;;;1.60;1.50;;;8.80;99.90;8.30;101122;;;;603915;234;24126;-76
2022/09/22 00:15:59;;;;;;;2.20;1.73;;;8.90;99.90;8.30;101127;;;;603781;234;24014;-74
2022/09/22 00:18:25;;;;;;;2.87;1.40;;;8.80;99.90;8.30;101122;;;;604418;234;24018;-77
2022/09/22 00:20:53;;;;;;;4.03;1.80;;;8.80;99.90;8.30;101122;;;;602862;234;23992;-77
2022/09/22 00:23:24;;;;;;;2.80;1.60;;;8.90;99.90;8.40;101119;;;;614145;234;24026;-75
2022/09/22 00:25:52;;;;;;;4.43;1.63;;;8.90;99.90;8.40;101115;;;;604228;234;24024;-75
2022/09/22 00:28:23;;;;;;;3.23;1.70;;;9.00;99.90;8.50;101125;;;;604125;234;24056;-73
2022/09/22 00:30:48;;;;;;;1.80;1.60;;;9.00;99.90;8.60;101131;;;;613099;234;25073;-74
2022/09/22 00:33:16;;;;;;;4.23;1.90;;;9.10;99.90;8.60;101121;;;;603696;234;24018;-79
2022/09/22 00:35:44;;;;;;;1.87;1.43;;;9.30;99.90;8.70;101122;;;;604139;234;23992;-75
2022/09/22 00:38:12;;;;;;;1.80;1.60;;;9.20;99.90;8.80;101116;;;;603739;234;24058;-75
2022/09/22 00:40:43;;;;;;;1.23;1.23;;;9.30;99.90;8.80;101111;;;;603583;234;24096;-74
2022/09/22 00:43:14;;;;;;;2.80;1.50;;;9.40;99.90;8.80;101119;;;;603374;234;24063;-75
2022/09/22 00:45:42;;;;;;;3.30;1.80;;;9.40;99.90;8.90;101117;;;;603644;234;24037;-73
2022/09/22 00:48:10;;;;;;;3.47;1.30;;;9.50;99.90;8.90;101117;;;;603713;234;24076;-75
2022/09/22 00:50:38;;;;;;;1.50;1.40;;;9.50;99.90;8.90;101113;;;;603682;234;24050;-74
2022/09/22 00:53:06;;;;;;;1.87;1.60;;;9.50;99.90;8.90;101112;;;;603950;234;24050;-74
2022/09/22 00:55:50;;;;;;;1.23;1.13;;;9.50;99.90;9.00;101108;;;;603622;234;24006;-74
2022/09/22 00:58:18;;;;;;;1.43;1.13;;;9.50;99.90;9.00;101111;;;;604054;234;24011;-75
2022/09/22 01:00:46;;;;;;;1.20;1.20;;;9.60;99.90;9.00;101121;;;;603660;234;24106;-75
2022/09/22 01:03:15;;;;;;;1.10;1.00;;;9.60;99.90;9.10;101119;;;;604284;234;24047;-73
2022/09/22 01:05:43;;;;;;;2.30;1.20;;;9.60;99.90;9.10;101110;;;;605039;234;24031;-74
2022/09/22 01:08:11;;;;;;;3.10;1.30;;;9.70;99.90;9.20;101104;;;;604635;234;24018;-74
2022/09/22 01:10:39;;;;;;;0.93;0.93;;;9.70;99.90;9.20;101106;;;;604518;234;23998;-74
2022/09/22 01:13:22;;;;;;;3.80;1.33;;;9.80;99.90;9.20;101111;;;;614137;233;24045;-75
2022/09/22 01:16:06;;;;;;;1.33;1.23;;;9.80;99.90;9.30;101116;;;;603846;234;24116;-74
2022/09/22 01:18:42;;;;;;;1.60;1.00;;;9.80;99.90;9.30;101117;;;;603903;234;24061;-75
2022/09/22 01:21:19;;;;;;;3.00;1.30;;;9.90;99.90;9.30;101113;;;;604293;234;24132;-74
2022/09/22 01:24:11;;;;;;;0.90;0.90;;;9.90;99.90;9.40;101112;;;;604195;234;24020;-73
2022/09/22 01:27:07;;;;;;;1.30;1.13;;;9.90;99.90;9.40;101115;;;;604435;234;24014;-74
2022/09/22 01:30:14;;;;;;;1.70;0.83;;;10.00;99.90;9.40;101112;;;;604456;234;24036;-76
2022/09/22 01:32:51;;;;;;;1.23;1.13;;;10.00;99.90;9.40;101108;;;;603985;234;24056;-76
2022/09/22 01:35:30;;;;;;;1.37;0.93;;;10.00;99.90;9.40;101115;;;;613327;234;24061;-74
2022/09/22 01:38:04;;;;;;;3.03;1.10;;;10.00;99.90;9.40;101123;;;;603553;234;24017;-74
2022/09/22 01:40:50;;;;;;;1.20;1.10;;;10.00;99.90;9.40;101122;;;;603371;234;24076;-74
2022/09/22 01:43:23;;;;;;;1.90;1.10;;;10.00;99.90;9.40;101126;;;;603999;234;24007;-74
2022/09/22 01:45:51;;;;;;;2.43;1.30;;;10.00;99.90;9.40;101120;;;;607954;234;24060;-75
2022/09/22 01:48:20;;;;;;;0.90;0.90;;;10.00;99.90;9.40;101128;;;;603803;234;24024;-76
2022/09/22 01:51:09;;;;;;;3.07;1.33;;;10.00;99.90;9.50;101121;;;;603647;234;24126;-81
2022/09/22 01:53:38;;;;;;;1.00;0.87;;;10.00;99.90;9.50;101121;;;;603870;234;24026;-75
2022/09/22 01:56:06;;;;;;;1.43;1.13;;;10.10;99.90;9.50;101122;;;;603595;234;24085;-76
2022/09/22 01:58:39;;;;;;;2.30;1.50;;;10.00;99.90;9.50;101116;;;;603685;234;24032;-75
2022/09/22 02:01:13;;;;;;;1.23;0.90;;;10.10;99.90;9.50;101108;;;;603344;234;24061;-74
2022/09/22 02:04:06;;;;;;;1.30;1.20;;;10.10;99.90;9.50;101113;;;;603324;234;24041;-76
2022/09/22 02:06:40;;;;;;;2.23;1.30;;;10.10;99.90;9.50;101112;;;;603912;234;24049;-74
2022/09/22 02:09:11;;;;;;;2.07;1.30;;;10.10;99.90;9.50;101112;;;;603538;234;24036;-75
2022/09/22 02:11:39;;;;;;;1.00;1.00;;;10.10;99.90;9.50;101111;;;;603264;234;24029;-76
2022/09/22 02:14:11;;;;;;;1.70;1.53;;;10.00;99.90;9.50;101113;;;;603750;234;24049;-75
2022/09/22 02:16:36;;;;;;;1.80;1.47;;;10.00;99.90;9.50;101108;;;;605273;234;24042;-74
2022/09/22 02:19:10;;;;;;;1.30;1.20;;;10.00;99.90;9.50;101107;;;;604859;234;24055;-75
2022/09/22 02:21:40;;;;;;;3.07;1.90;;;10.00;99.90;9.40;101106;;;;609068;233;24084;-75
2022/09/22 02:24:42;;;;;;;2.40;2.20;;;10.00;99.90;9.40;101114;;;;604858;234;24034;-73
2022/09/22 02:27:25;;;;;;;3.63;3.33;;;10.00;99.90;9.40;101121;;;;604684;234;24041;-74
2022/09/22 02:29:57;;;;;;;3.60;3.07;;;10.00;99.90;9.40;101121;;;;604519;234;24031;-74
2022/09/22 02:32:28;;;;;;;2.93;2.63;;;10.00;99.90;9.40;101120;;;;604553;234;24056;-74
2022/09/22 02:34:52;;;;;;;2.37;2.17;;;10.00;99.90;9.50;101127;;;;603807;234;24015;-75
2022/09/22 02:37:39;;;;;;;2.80;2.20;;;10.00;99.90;9.50;101122;;;;604191;234;24010;-74
2022/09/22 02:40:12;;;;;;;1.83;1.53;;;10.10;99.90;9.50;101123;;;;602314;234;24075;-74
2022/09/22 02:42:43;;;;;;;1.63;1.50;;;10.10;99.90;9.50;101114;;;;604023;234;24032;-75
2022/09/22 02:45:28;;;;;;;2.03;1.90;;;10.10;99.90;9.50;101108;;;;603526;234;24024;-78
2022/09/22 02:47:56;;;;;;;2.50;2.30;;;10.00;99.90;9.50;101109;;;;603884;234;24062;-75
2022/09/22 02:50:24;;;;;;;1.90;1.70;;;10.10;99.90;9.50;101108;;;;602260;234;24069;-75
2022/09/22 02:52:53;;;;;;;3.50;1.70;;;10.00;99.90;9.50;101105;;;;604038;234;23989;-75
2022/09/22 02:55:21;;;;;;;1.30;1.20;;;10.00;99.90;9.40;101103;;;;603997;234;23999;-75
2022/09/22 02:57:49;;;;;;;1.60;0.97;;;10.00;99.90;9.40;101103;;;;604150;234;24014;-76
2022/09/22 03:00:17;;;;;;;1.97;1.30;;;10.00;99.90;9.40;101102;;;;604096;234;24046;-77
2022/09/22 03:02:45;;;;;;;4.17;2.60;;;10.00;99.90;9.40;101106;;;;603763;234;24010;-75
2022/09/22 03:05:14;;;;;;;3.70;2.33;;;10.00;99.90;9.40;101111;;;;603808;234;24009;-76
2022/09/22 03:07:42;;;;;;;6.03;2.23;;;10.00;99.90;9.40;101108;;;;603628;234;24058;-76
2022/09/22 03:10:13;;;;;;;1.57;1.47;;;10.00;99.90;9.40;101096;;;;603844;234;24021;-78
2022/09/22 03:12:42;;;;;;;1.80;1.60;;;10.00;99.90;9.40;101099;;;;606270;234;24003;-76
2022/09/22 03:15:09;;;;;;;1.13;1.13;;;9.90;99.90;9.40;101103;;;;603763;234;24004;-72
2022/09/22 03:17:41;;;;;;;3.17;1.20;;;9.90;99.90;9.40;101104;;;;613375;234;24016;-76
2022/09/22 03:20:05;;;;;;;0.93;0.93;;;9.90;99.90;9.30;101116;;;;608881;234;24011;-77
2022/09/22 03:22:33;;;;;;;0.80;0.80;;;9.90;99.90;9.30;101117;;;;608254;234;24051;-74
2022/09/22 03:25:01;;;;;;;0.80;0.80;;;9.90;99.90;9.30;101114;;;;604179;234;24077;-78
2022/09/22 03:27:29;;;;;;;1.30;0.70;;;9.90;99.90;9.30;101116;;;;615459;232;23994;-77
2022/09/22 03:29:58;;;;;;;0.80;0.80;;;9.80;99.90;9.30;101117;;;;605640;234;24045;-75
2022/09/22 03:32:25;;;;;;;0.90;0.90;;;9.80;99.90;9.30;101111;;;;605418;234;23989;-74
2022/09/22 03:34:54;;;;;;;1.90;0.87;;;9.80;99.90;9.30;101108;;;;605460;234;24031;-75
2022/09/22 03:37:25;;;;;;;0.63;0.63;;;9.80;99.90;9.30;101118;;;;604525;234;23996;-76
2022/09/22 03:39:50;;;;;;;0.50;0.50;;;9.80;99.90;9.20;101108;;;;604189;234;24028;-79
2022/09/22 03:42:18;;;;;;;0.93;0.93;;;9.70;99.90;9.20;101105;;;;604437;234;24031;-74
2022/09/22 03:44:46;;;;;;;1.23;0.90;;;9.70;99.90;9.20;101109;;;;603022;234;24089;-79
2022/09/22 03:47:14;;;;;;;0.90;0.90;;;9.70;99.90;9.20;101112;;;;604340;234;24036;-77
2022/09/22 03:49:42;;;;;;;1.10;1.00;;;9.70;99.90;9.20;101113;;;;604461;234;24010;-76
2022/09/22 03:52:10;;;;;;;0.63;0.60;;;9.70;99.90;9.20;101110;;;;613760;234;24002;-77
2022/09/22 03:54:38;;;;;;;1.00;1.00;;;9.70;99.90;9.20;101104;;;;603921;234;24033;-75
2022/09/22 03:57:05;;;;;;;3.83;0.93;;;9.70;99.90;9.20;101099;;;;604023;234;23999;-76
2022/09/22 03:59:33;;;;;;;1.10;1.10;;;9.70;99.90;9.20;101109;;;;604085;234;24047;-77
2022/09/22 04:02:03;;;;;;;1.40;1.20;;;9.70;99.90;9.20;101092;;;;604097;234;24014;-76
2022/09/22 04:04:29;;;;;;;2.43;1.63;;;9.70;99.90;9.20;101094;;;;603750;234;24045;-76
2022/09/22 04:06:57;;;;;;;2.73;1.87;;;9.70;99.90;9.20;101094;;;;613398;234;24056;-78
2022/09/22 04:09:25;;;;;;;2.37;1.87;;;9.70;99.90;9.10;101091;;;;613571;234;24034;-77
2022/09/22 04:11:53;;;;;;;2.27;1.83;;;9.60;99.90;9.10;101096;;;;603621;234;24013;-76
2022/09/22 04:14:21;;;;;;;2.60;1.83;;;9.60;99.90;9.10;101093;;;;603799;234;24019;-77
2022/09/22 04:16:49;;;;;;;3.00;2.13;;;9.60;99.90;9.10;101092;;;;603689;234;24022;-75
2022/09/22 04:19:18;;;;;;;1.80;1.70;;;9.50;99.90;9.10;101092;;;;604063;234;24007;-75
2022/09/22 04:21:46;;;;;;;2.83;2.23;;;9.50;99.90;9.10;101093;;;;613444;234;24028;-74
2022/09/22 04:24:14;;;;;;;2.43;1.87;;;9.60;99.90;9.10;101083;;;;604097;234;24030;-75
2022/09/22 04:26:42;;;;;;;3.57;2.23;;;9.60;99.90;9.00;101082;;;;613843;234;23997;-81
2022/09/22 04:29:10;;;;;;;3.47;2.20;;;9.50;99.90;9.00;101087;;;;613854;234;24007;-78
2022/09/22 04:31:39;;;;;;;3.33;1.97;;;9.50;99.90;9.00;101083;;;;604120;234;24035;-77
2022/09/22 04:34:06;;;;;;;1.83;1.70;;;9.50;99.90;9.00;101086;;;;604064;234;24023;-78
2022/09/22 04:36:34;;;;;;;3.73;2.87;;;9.50;99.90;9.00;101088;;;;598845;234;45730;-76
2022/09/22 04:39:03;;;;;;;4.20;1.87;;;9.60;99.90;9.00;101090;;;;604980;234;24018;-76
2022/09/22 04:41:31;;;;;;;3.30;2.10;;;9.50;99.90;9.00;101090;;;;604795;234;24070;-77
2022/09/22 04:43:59;;;;;;;2.63;1.90;;;9.60;99.90;9.00;101093;;;;604666;234;24049;-76
2022/09/22 04:46:26;;;;;;;1.30;1.30;;;9.60;99.90;9.00;101084;;;;614298;233;24077;-76
2022/09/22 04:48:55;;;;;;;1.60;1.40;;;9.60;99.90;9.00;101085;;;;604379;234;24007;-76
2022/09/22 04:51:22;;;;;;;1.63;1.53;;;9.60;99.90;9.10;101094;;;;604234;234;24010;-76
2022/09/22 04:53:50;;;;;;;3.63;1.47;;;9.60;99.90;9.10;101089;;;;604203;234;24018;-76
2022/09/22 04:56:18;;;;;;;1.37;1.27;;;9.60;99.90;9.10;101091;;;;604236;234;24022;-78
2022/09/22 04:58:46;;;;;;;5.70;1.73;;;9.70;99.90;9.20;101086;;;;603936;234;24043;-78
2022/09/22 05:01:14;;;;;;;1.93;1.53;;;9.70;99.90;9.20;101091;;;;604136;234;24036;-79
2022/09/22 05:03:43;;;;;;;2.00;1.80;;;9.70;99.90;9.20;101103;;;;603830;234;24032;-76
2022/09/22 05:06:10;;;;;;;3.93;1.67;;;9.70;99.90;9.20;101083;;;;603870;234;24062;-75
2022/09/22 05:08:38;;;;;;;2.50;2.30;;;9.70;99.90;9.20;101081;;;;598817;234;45709;-76
2022/09/22 05:11:08;;;;;;;7.80;2.20;;;9.70;99.90;9.10;101088;;;;603959;234;24009;-78
2022/09/22 05:13:34;;;;;;;3.17;1.70;;;9.70;99.90;9.10;101095;;;;604002;234;24020;-76
2022/09/22 05:16:04;;;;;;;2.73;1.70;;;9.60;99.90;9.00;101094;;;;603635;234;24022;-77
2022/09/22 05:18:31;;;;;;;1.57;1.47;;;9.60;99.90;9.00;101096;;;;604021;234;24059;-77
2022/09/22 05:20:59;;;;;;;2.47;1.40;;;9.60;99.90;9.00;101094;;;;603692;234;24023;-81
2022/09/22 05:23:29;;;;;;;1.70;1.60;;;9.50;99.90;9.00;101094;;;;603613;234;24038;-77
2022/09/22 05:25:54;;;;;;;2.47;1.50;;;9.50;99.90;9.00;101086;;;;600371;234;24016;-75
2022/09/22 05:28:22;;;;;;;1.93;1.47;;;9.60;99.90;9.00;101094;;;;604057;234;23993;-77
2022/09/22 05:30:52;;;;;;;1.80;1.60;;;9.50;99.90;9.10;101100;;;;604125;234;24040;-77
2022/09/22 05:33:17;;;;;;;3.20;1.67;;;9.60;99.90;9.10;101106;;;;603638;234;24023;-76
2022/09/22 05:35:46;;;;;;;1.80;1.70;;;9.70;99.90;9.20;101109;;;;604097;234;24027;-75
2022/09/22 05:38:14;;;;;;;3.30;1.47;;;9.70;99.90;9.20;101124;;;;604087;234;24008;-73
2022/09/22 05:40:43;;;;;;;2.80;1.30;;;9.80;99.90;9.30;101137;;;;603684;234;24021;-75
2022/09/22 05:43:11;;;;;;;1.90;1.67;;;9.70;99.90;9.30;101138;;;;603748;234;24080;-74
2022/09/22 05:45:38;;;;;;;2.83;1.10;;;9.80;99.90;9.40;101137;;;;603750;234;24091;-75
2022/09/22 05:48:06;;;;;;;4.00;1.00;;;9.90;99.90;9.50;101142;;;;613894;234;24027;-75
2022/09/22 05:50:38;;;;;;;3.03;1.20;;;10.00;99.90;9.50;101134;;;;605357;234;24017;-80
2022/09/22 05:53:05;;;;;;;1.73;0.93;;;10.00;99.90;9.50;101133;;;;604977;234;24009;-79
2022/09/22 05:55:33;;;;;;;0.93;0.93;;;10.00;99.90;9.60;101134;;;;604729;234;24065;-78
2022/09/22 05:58:02;;;;;;;1.17;1.17;;;10.20;99.90;9.60;101131;;;;604908;234;24020;-78
2022/09/22 06:00:30;;;;;;;1.27;1.23;;;10.10;99.90;9.80;101135;;;;614400;234;24053;-77
2022/09/22 06:02:58;;;;;;;0.80;0.80;;;10.30;99.90;9.90;101129;;;;604214;234;24010;-77
2022/09/22 06:05:26;;;;;;;0.90;0.90;;;10.40;99.90;10.10;101128;;;;604757;234;24042;-76
2022/09/22 06:08:00;;;;;;;1.30;1.20;;;10.70;99.90;10.30;101130;;;;604242;234;24031;-78
2022/09/22 06:10:25;;;;;;;1.47;1.43;;;10.70;99.90;10.60;101132;;;;603369;234;24033;-80
2022/09/22 06:13:02;;;;;;;1.40;1.30;;;10.90;99.90;10.90;101139;;;;600423;239;24124;-81
2022/09/22 06:15:32;;;;;;;3.37;1.60;;;11.30;99.90;11.30;101139;;;;594315;234;24019;-79
2022/09/22 06:17:58;;;;;;;1.40;1.30;;;11.70;99.90;12.00;101135;;;;603855;234;24062;-76
2022/09/22 06:20:28;;;;;;;1.90;1.67;;;12.30;99.90;12.30;101142;;;;600350;239;24049;-80
2022/09/22 06:22:55;;;;;;;2.67;2.30;;;12.70;99.90;12.30;101144;;;;603922;234;24047;-78
2022/09/22 06:25:22;;;;;;;2.37;1.70;;;12.80;99.90;12.40;101140;;;;600241;239;24075;-79
2022/09/22 06:28:03;;;;;;;2.43;1.67;;;13.00;99.90;12.60;101139;;;;604166;234;24052;-76
2022/09/22 06:30:29;;;;;;;5.20;1.50;;;13.00;99.90;12.60;101143;;;;603701;234;24008;-78
2022/09/22 06:32:56;;;;;;;3.60;1.30;;;13.00;99.90;12.50;101151;;;;600407;239;25135;-77
2022/09/22 06:35:24;;;;;;;2.23;1.40;;;13.00;99.90;12.60;101148;;;;604082;234;23992;-76
2022/09/22 06:37:58;;;;;;;2.50;2.30;;;13.20;99.90;12.90;101153;;;;600451;239;24041;-77
2022/09/22 06:40:30;;;;;;;3.23;2.60;;;13.20;99.90;13.00;101149;;;;613910;233;23995;-76
2022/09/22 06:42:57;;;;;;;1.93;1.83;;;13.40;99.90;12.90;101156;;;;603081;234;24012;-77
2022/09/22 06:45:25;;;;;;;3.40;1.43;;;13.40;99.90;12.70;101159;;;;603362;234;24020;-80
2022/09/22 06:47:59;;;;;;;2.43;1.17;;;13.20;99.90;12.60;101158;;;;603586;234;24069;-77
2022/09/22 06:50:31;;;;;;;1.67;1.20;;;13.10;99.90;12.50;101154;;;;590913;240;24045;-77
2022/09/22 06:52:58;;;;;;;2.12;1.50;;;13.00;99.90;12.40;101158;;;;598434;234;34802;-77
2022/09/22 06:55:26;;;;;;;1.60;1.00;;;13.00;99.90;12.40;101150;;;;612480;234;24085;-82
2022/09/22 06:57:54;;;;;;;1.10;1.00;;;12.90;99.90;12.40;101152;;;;603429;234;24025;-77
2022/09/22 07:00:22;;;;;;;1.57;0.73;;;13.00;99.90;12.40;101150;;;;613329;234;24045;-75
2022/09/22 07:02:50;;;;;;;0.93;0.83;;;12.90;99.90;12.40;101159;;;;605401;234;24004;-78
2022/09/22 07:05:19;;;;;;;0.80;0.80;;;12.90;99.90;12.50;101161;;;;604773;234;24055;-77
2022/09/22 07:07:50;;;;;;;1.93;0.90;;;13.00;99.90;12.50;101160;;;;600948;239;24043;-76
2022/09/22 07:10:14;;;;;;;1.70;1.00;;;13.10;99.90;12.70;101165;;;;603964;234;24096;-77
2022/09/22 07:12:41;;;;;;;1.03;0.93;;;13.20;99.90;12.70;101161;;;;600555;239;24081;-76
2022/09/22 07:15:09;;;;;;;1.50;1.20;;;13.20;99.90;12.70;101155;;;;614157;233;23987;-79
2022/09/22 07:17:38;;;;;;;1.03;0.93;;;13.30;99.90;12.80;101168;;;;614080;233;23992;-78
2022/09/22 07:20:07;;;;;;;1.30;1.10;;;13.40;99.90;12.80;101171;;;;600480;239;24036;-77
2022/09/22 07:22:38;;;;;;;1.73;1.10;;;13.40;99.90;13.00;101173;;;;604205;234;23998;-76
2022/09/22 07:25:02;;;;;;;0.67;0.67;;;13.50;99.90;13.20;101171;;;;600170;239;25094;-74
2022/09/22 07:27:30;;;;;;;1.43;0.77;;;13.80;99.90;13.50;101166;;;;604629;234;24003;-78
2022/09/22 07:29:58;;;;;;;0.97;0.83;;;14.00;99.90;13.70;101174;;;;604503;234;24067;-79
2022/09/22 07:32:29;;;;;;;0.67;0.60;;;14.20;99.90;13.90;101170;;;;600808;239;24045;-78
2022/09/22 07:34:56;;;;;;;3.63;1.50;;;14.40;99.90;13.80;101167;;;;604066;234;24043;-80
2022/09/22 07:37:22;;;;;;;0.80;0.80;;;14.40;99.90;13.70;101169;;;;604185;234;24065;-81
2022/09/22 07:39:49;;;;;;;0.70;0.70;;;14.30;99.90;13.60;101166;;;;600464;239;24024;-82
2022/09/22 07:42:18;;;;;;;0.80;0.80;;;14.30;99.90;13.50;101169;;;;604305;234;24002;-80
2022/09/22 07:50:17;;;;;;;0.60;0.60;;;14.40;99.90;14.30;101170;;;;600078;239;24031;-78
2022/09/22 07:52:51;;;;;;;0.90;0.90;;;14.80;99.90;15.50;101173;;;;603835;234;23990;-81
2022/09/22 07:55:25;;;;;;;1.07;0.77;;;15.80;99.90;16.30;101180;;;;594206;240;24078;-78
2022/09/22 07:58:18;;;;;;;0.70;0.70;;;16.70;99.90;17.10;101166;;;;603338;234;24015;-81
2022/09/22 08:00:49;;;;;;;0.90;0.90;;;17.40;99.90;18.40;101177;;;;603899;234;23986;-80
2022/09/22 08:03:14;;;;;;;1.43;1.30;;;18.80;99.90;18.90;101188;;;;599612;239;24131;-79
2022/09/22 08:05:41;;;;;;;2.43;1.10;;;19.60;99.90;18.80;101183;;;;603704;234;24021;-80
2022/09/22 08:08:09;;;;;;;0.70;0.70;;;19.70;99.90;18.70;101188;;;;603804;234;24042;-81
2022/09/22 08:10:41;;;;;;;0.50;0.50;;;19.60;99.90;18.50;101185;;;;603710;234;24039;-82
2022/09/22 08:13:06;;;;;;;0.50;0.50;;;19.50;99.90;18.40;101179;;;;600491;237;24117;-81
2022/09/22 08:15:34;;;;;;;0.87;0.70;;;19.10;99.90;18.30;101186;;;;605046;234;24093;-81
2022/09/22 08:18:02;;;;;;;1.00;0.80;;;19.10;99.90;18.00;101174;;;;591343;239;24030;-80
2022/09/22 08:20:30;;;;;;;1.10;1.10;;;18.90;99.90;17.60;101170;;;;604642;234;23996;-82
2022/09/22 08:22:59;;;;;;;3.10;0.87;;;18.50;99.90;17.20;101167;;;;600717;238;24020;-81
2022/09/22 08:25:25;;;;;;;0.77;0.77;;;18.10;99.90;17.00;101164;;;;604436;234;23994;-82
2022/09/22 08:27:53;;;;;;;2.30;0.57;;;17.70;99.90;16.80;101167;;;;591348;239;24024;-82
2022/09/22 08:30:24;;;;;;;0.60;0.60;;;17.50;99.90;16.70;101168;;;;604646;234;24022;-81
2022/09/22 08:32:49;;;;;;;0.73;0.73;;;17.30;99.90;16.40;101171;;;;603910;234;24018;-82
2022/09/22 08:35:18;;;;;;;1.37;0.80;;;16.80;99.90;16.10;101176;;;;604431;234;23996;-81
2022/09/22 08:37:46;;;;;;;1.07;0.90;;;16.80;99.90;15.90;101175;;;;604273;234;24025;-79
2022/09/22 08:40:17;;;;;;;0.77;0.77;;;16.50;99.90;15.60;101171;;;;609519;234;24090;-77
2022/09/22 08:42:45;;;;;;;1.23;1.13;;;16.00;99.90;15.40;101171;;;;609384;234;24131;-78
2022/09/22 08:45:16;;;;;;;1.30;1.20;;;16.00;99.90;15.20;101175;;;;600768;239;24021;-79
2022/09/22 08:53:32;;;;;;;3.17;1.97;;;15.30;99.90;14.60;101179;;;;603577;234;24040;-82
2022/09/22 08:56:05;;;;;;;2.10;1.80;;;14.80;99.90;14.30;101174;;;;608878;234;24007;-83
2022/09/22 08:58:36;;;;;;;1.50;1.40;;;14.50;99.90;14.10;101178;;;;607477;234;24052;-76
2022/09/22 09:01:20;;;;;;;1.13;1.03;;;14.50;99.90;13.80;101177;;;;590911;240;24022;-78
2022/09/22 09:04:00;;;;;;;1.20;1.20;;;14.20;99.90;13.60;101171;;;;597002;234;24016;-76
2022/09/22 09:06:49;;;;;;;1.10;1.10;;;14.00;99.90;13.50;101180;;;;600707;234;24005;-77
2022/09/22 09:09:53;;;;;;;1.50;0.93;;;13.90;99.90;13.30;101177;;;;608742;234;24012;-76
2022/09/22 09:12:30;;;;;;;1.07;0.97;;;13.70;99.90;13.00;101189;;;;589780;240;24038;-75
2022/09/22 09:15:01;;;;;;;1.33;1.23;;;13.50;99.90;12.80;101185;;;;612798;234;24010;-76
2022/09/22 09:17:29;;;;;;;1.93;1.10;;;13.30;99.90;12.80;101182;;;;608357;234;23999;-77
2022/09/22 09:20:15;;;;;;;1.07;1.03;;;13.30;99.90;12.70;101182;;;;608809;234;24073;-75
2022/09/22 09:22:40;;;;;;;1.03;0.97;;;13.10;99.90;12.70;101178;;;;579990;244;24023;-78
2022/09/22 09:25:22;;;;;;;11.43;2.07;;;13.10;99.90;12.70;101166;;;;604712;234;23995;-80
2022/09/22 09:27:48;;;;;;;4.83;1.60;;;13.20;99.90;12.80;101173;;;;604726;234;24021;-76
2022/09/22 09:30:23;;;;;;;1.50;1.00;;;13.30;99.90;13.00;101188;;;;609966;234;23999;-79
2022/09/22 09:32:56;;;;;;;2.13;1.50;;;13.40;99.90;13.20;101184;;;;578743;244;24111;-80
2022/09/22 09:35:25;;;;;;;1.23;1.23;;;13.50;99.90;13.50;101183;;;;604058;234;24069;-79
2022/09/22 09:37:52;;;;;;;1.83;1.57;;;13.80;99.90;13.90;101186;;;;603650;234;24080;-76
2022/09/22 09:40:30;;;;;;;;;;;;;;;;;;;;;
2022/09/22 09:42:52;;;;;;;2.77;1.70;;;14.90;99.90;14.70;101182;;;;602672;234;24039;-77
2022/09/22 09:45:19;;;;;;;2.53;2.33;;;14.90;99.90;15.00;101186;;;;609157;234;24037;-82
2022/09/22 09:47:58;;;;;;;3.33;2.10;;;15.30;99.90;15.30;101176;;;;609330;234;24066;-82
2022/09/22 09:50:30;;;;;;;3.07;2.10;;;15.60;99.90;15.20;101189;;;;603825;234;23999;-80
2022/09/22 09:52:54;;;;;;;2.67;2.03;;;15.60;99.90;15.10;101178;;;;603460;234;24020;-78
2022/09/22 09:55:25;;;;;;;2.73;1.70;;;15.50;99.90;15.00;101181;;;;603838;234;24011;-76
2022/09/22 10:00:29;;;;;;;4.93;1.80;;;15.50;99.90;15.10;101184;;;;586669;239;24086;-77
2022/09/22 10:00:54;;;;;;;1.43;1.10;;;15.50;99.90;15.10;101181;;;;611702;234;24005;-77
2022/09/22 10:04:31;;;;;;;1.87;1.20;;;15.60;99.90;15.30;101179;;;;602775;234;24062;-76
2022/09/22 10:07:15;;;;;;;1.07;0.90;;;15.70;99.90;15.60;101180;;;;612632;234;24010;-76
2022/09/22 10:09:41;;;;;;;1.10;1.00;;;16.00;99.90;16.20;101180;;;;603848;234;24051;-77
2022/09/22 10:12:27;;;;;;;0.97;0.80;;;16.60;99.90;16.60;101177;;;;603356;234;24010;-77
2022/09/22 10:14:58;;;;;;;1.13;1.00;;;17.10;99.90;17.10;101177;;;;602887;234;25101;-75
2022/09/22 10:17:32;;;;;;;2.83;1.00;;;17.70;99.90;17.60;101186;;;;613088;234;24065;-79
2022/09/22 10:20:25;;;;;;;1.33;1.10;;;18.30;99.90;17.90;101188;;;;602310;234;24017;-77
2022/09/22 10:22:55;;;;;;;0.70;0.70;;;18.70;99.90;18.10;101184;;;;603650;234;24079;-76
2022/09/22 10:25:29;;;;;;;0.50;0.47;;;18.90;99.90;18.10;101179;;;;603395;234;24010;-77
2022/09/22 10:28:00;;;;;;;0.83;0.53;;;19.00;99.90;18.30;101178;;;;612999;233;24133;-77
2022/09/22 10:30:31;;;;;;;0.40;0.40;;;19.20;99.90;18.70;101172;;;;603755;234;25136;-78
2022/09/22 10:33:20;;;;;;;0.47;0.47;;;19.60;99.90;18.70;101175;;;;613218;234;23985;-77
2022/09/22 10:36:03;;;;;;;0.93;0.50;;;19.50;99.90;18.50;101180;;;;604441;233;24049;-76
2022/09/22 10:38:40;;;;;;;0.53;0.53;;;19.10;99.90;18.20;101173;;;;605226;234;24006;-79
2022/09/22 10:41:15;;;;;;;2.47;0.50;;;19.10;99.90;17.80;101169;;;;604892;234;23081;-77
2022/09/22 10:44:06;;;;;;;0.67;0.43;;;18.70;99.90;17.40;101167;;;;600105;234;23996;-78
2022/09/22 10:47:11;;;;;;;0.50;0.50;;;18.10;99.90;17.40;101163;;;;604251;234;24021;-80
2022/09/22 10:50:06;;;;;;;1.03;0.50;;;18.10;99.90;17.30;101163;;;;604472;234;24031;-81
2022/09/22 10:52:55;;;;;;;0.93;0.63;;;18.00;99.90;17.30;101161;;;;600386;239;24077;-79
2022/09/22 10:55:41;;;;;;;0.60;0.60;;;17.90;99.90;17.50;101160;;;;613728;234;24018;-78
2022/09/22 10:58:30;;;;;;;1.43;1.10;;;18.10;99.90;17.70;101163;;;;604081;234;24093;-77
2022/09/22 11:01:05;;;;;;;0.80;0.80;;;18.30;99.90;17.90;101165;;;;603814;234;25248;-76
2022/09/22 11:03:44;;;;;;;0.50;0.50;;;18.50;99.90;18.10;101165;;;;604818;234;24053;-76
2022/09/22 11:12:50;;;;;;;0.70;0.70;;;18.90;99.90;18.50;101162;;;;591621;240;24035;-75
2022/09/22 11:15:33;;;;;;;0.73;0.70;;;19.00;99.90;18.60;101159;;;;604416;234;24015;-75
2022/09/22 11:18:40;;;;;;;1.60;0.70;;;19.10;99.90;18.50;101159;;;;604165;233;24007;-79
2022/09/22 11:21:14;;;;;;;0.67;0.63;;;19.10;99.90;18.50;101160;;;;603489;234;24003;-76
2022/09/22 11:24:00;;;;;;;1.67;0.90;;;19.00;99.90;18.30;101159;;;;603188;234;24007;-76
2022/09/22 11:26:48;;;;;;;0.50;0.50;;;18.90;99.90;18.00;101165;;;;602987;234;24012;-78
2022/09/22 11:29:59;;;;;;;0.40;0.40;;;18.60;99.90;17.70;101160;;;;603908;234;24040;-79
2022/09/22 11:32:43;;;;;;;1.30;0.60;;;18.10;99.90;17.50;101156;;;;599654;234;24059;-76
2022/09/22 11:35:32;;;;;;;2.20;0.40;;;18.10;99.90;17.50;101155;;;;603615;234;24000;-76
2022/09/22 11:38:08;;;;;;;0.50;0.50;;;18.00;99.90;17.60;101155;;;;604017;234;24047;-78
2022/09/22 11:41:12;;;;;;;0.60;0.37;;;18.10;99.90;17.70;101151;;;;608538;234;24027;-76
2022/09/22 11:44:08;;;;;;;0.40;0.40;;;18.20;99.90;17.80;101151;;;;603422;234;24012;-80
2022/09/22 11:47:06;;;;;;;0.50;0.50;;;18.30;99.90;17.80;101153;;;;603861;234;24022;-78
2022/09/22 11:49:55;;;;;;;1.13;0.57;;;18.30;99.90;17.80;101151;;;;605030;233;23990;-79
2022/09/22 11:52:29;;;;;;;0.50;0.50;;;18.30;99.90;17.80;101155;;;;597236;234;24039;-78
2022/09/22 11:55:17;;;;;;;1.67;0.80;;;18.30;99.90;17.70;101146;;;;604022;234;24090;-77
2022/09/22 11:57:45;;;;;;;0.57;0.57;;;18.20;99.90;17.70;101153;;;;604083;234;24001;-78
2022/09/22 12:00:17;;;;;;;0.60;0.60;;;18.20;99.90;17.70;101153;;;;609254;234;24010;-78